createdAt,value
2022-08-16T00:00:54.572Z,18.70
2022-08-16T00:03:21.489Z,18.60
2022-08-16T00:05:57.983Z,18.50
2022-08-16T00:08:36.200Z,18.50
2022-08-16T00:11:15.593Z,18.40
2022-08-16T00:13:54.454Z,18.40
2022-08-16T00:17:00.987Z,18.30
2022-08-16T00:19:41.856Z,18.30
2022-08-16T00:22:16.594Z,18.30
2022-08-16T00:24:46.685Z,18.20
2022-08-16T00:27:20.579Z,18.10
2022-08-16T00:30:00.851Z,18.10
2022-08-16T00:32:42.591Z,18.10
2022-08-16T00:35:15.058Z,18.00
2022-08-16T00:37:57.623Z,18.00
2022-08-16T00:40:50.717Z,17.90
2022-08-16T00:43:40.881Z,17.90
2022-08-16T00:46:52.853Z,17.80
2022-08-16T00:49:29.410Z,17.80
2022-08-16T00:52:29.643Z,17.80
2022-08-16T00:54:58.958Z,17.80
2022-08-16T00:57:59.003Z,17.70
2022-08-16T01:00:24.990Z,17.60
2022-08-16T01:03:00.605Z,17.60
2022-08-16T01:05:28.679Z,17.60
2022-08-16T01:08:35.961Z,17.50
2022-08-16T01:11:17.591Z,17.50
2022-08-16T01:13:54.891Z,17.40
2022-08-16T01:16:33.620Z,17.40
2022-08-16T01:19:32.086Z,17.30
2022-08-16T01:22:48.318Z,17.20
2022-08-16T01:25:12.947Z,17.20
2022-08-16T01:27:59.601Z,17.20
2022-08-16T01:30:33.088Z,17.20
2022-08-16T01:33:14.538Z,17.10
2022-08-16T01:35:52.685Z,17.10
2022-08-16T01:38:35.601Z,17.00
2022-08-16T01:41:24.587Z,17.00
2022-08-16T01:44:01.036Z,16.90
2022-08-16T01:46:49.604Z,16.90
2022-08-16T01:50:43.440Z,16.90
2022-08-16T01:52:39.628Z,16.90
2022-08-16T01:55:26.625Z,16.80
2022-08-16T01:58:02.959Z,16.80
2022-08-16T02:00:43.607Z,16.80
2022-08-16T02:03:27.625Z,16.80
2022-08-16T02:06:12.626Z,16.80
2022-08-16T02:08:46.516Z,16.70
2022-08-16T02:11:48.266Z,16.70
2022-08-16T02:14:42.742Z,16.60
2022-08-16T02:17:16.206Z,16.60
2022-08-16T02:19:59.075Z,16.50
2022-08-16T02:22:37.003Z,16.50
2022-08-16T02:25:10.089Z,16.40
2022-08-16T02:27:44.655Z,16.40
2022-08-16T02:30:36.560Z,16.30
2022-08-16T02:33:12.649Z,16.30
2022-08-16T02:35:54.146Z,16.30
2022-08-16T02:38:31.701Z,16.20
2022-08-16T02:41:09.893Z,16.20
2022-08-16T02:43:45.646Z,16.20
2022-08-16T02:46:18.646Z,16.20
2022-08-16T02:48:49.084Z,16.20
2022-08-16T02:51:23.514Z,16.10
2022-08-16T02:53:50.309Z,16.10
2022-08-16T02:56:24.657Z,16.00
2022-08-16T02:59:11.737Z,16.00
2022-08-16T03:01:47.689Z,16.00
2022-08-16T03:04:29.926Z,15.90
2022-08-16T03:07:10.550Z,15.90
2022-08-16T03:09:44.830Z,15.80
2022-08-16T03:12:18.653Z,15.80
2022-08-16T03:14:52.670Z,15.80
2022-08-16T03:17:32.204Z,15.70
2022-08-16T03:20:05.675Z,15.80
2022-08-16T03:22:38.666Z,15.80
2022-08-16T03:25:20.678Z,15.70
2022-08-16T03:27:48.941Z,15.70
2022-08-16T03:30:30.752Z,15.60
2022-08-16T03:33:05.688Z,15.60
2022-08-16T03:35:37.214Z,15.60
2022-08-16T03:38:33.146Z,15.60
2022-08-16T03:41:03.038Z,15.50
2022-08-16T03:43:51.668Z,15.50
2022-08-16T03:46:45.124Z,15.50
2022-08-16T03:49:16.775Z,15.40
2022-08-16T03:51:44.078Z,15.40
2022-08-16T03:54:17.703Z,15.40
2022-08-16T03:56:57.610Z,15.30
2022-08-16T03:59:32.705Z,15.30
2022-08-16T04:02:01.530Z,15.30
2022-08-16T04:04:36.674Z,15.30
2022-08-16T04:07:07.201Z,15.30
2022-08-16T04:09:41.698Z,15.30
2022-08-16T04:12:53.274Z,15.30
2022-08-16T04:15:16.948Z,15.30
2022-08-16T04:17:50.692Z,15.30
2022-08-16T04:20:33.908Z,15.30
2022-08-16T04:23:03.831Z,15.20
2022-08-16T04:25:40.714Z,15.20
2022-08-16T04:28:52.093Z,15.10
2022-08-16T04:31:00.721Z,15.10
2022-08-16T04:33:34.942Z,15.10
2022-08-16T04:36:08.701Z,15.10
2022-08-16T04:38:41.708Z,15.10
2022-08-16T04:41:15.710Z,15.00
2022-08-16T04:43:50.717Z,15.00
2022-08-16T04:47:02.846Z,15.10
2022-08-16T04:49:18.707Z,15.10
2022-08-16T04:51:53.902Z,15.20
2022-08-16T04:54:22.203Z,15.30
2022-08-16T04:56:48.936Z,15.30
2022-08-16T04:59:21.729Z,15.40
2022-08-16T05:01:59.346Z,15.50
2022-08-16T05:04:32.733Z,15.50
2022-08-16T05:06:59.423Z,15.50
2022-08-16T05:12:30.376Z,15.50
2022-08-16T05:15:02.205Z,15.50
2022-08-16T05:17:37.734Z,15.60
2022-08-16T05:20:35.727Z,15.50
2022-08-16T05:22:59.498Z,15.50
2022-08-16T05:25:47.904Z,15.50
2022-08-16T05:28:31.059Z,15.50
2022-08-16T05:31:04.818Z,15.40
2022-08-16T05:33:42.179Z,15.40
2022-08-16T05:36:16.754Z,15.40
2022-08-16T05:38:48.731Z,15.40
2022-08-16T05:41:21.865Z,15.40
2022-08-16T05:43:48.801Z,15.40
2022-08-16T05:46:29.798Z,15.50
2022-08-16T05:49:09.587Z,15.50
2022-08-16T05:51:46.055Z,15.50
2022-08-16T05:54:17.350Z,15.40
2022-08-16T05:57:00.044Z,15.40
2022-08-16T05:59:27.533Z,15.40
2022-08-16T06:01:54.505Z,15.50
2022-08-16T06:04:35.962Z,15.50
2022-08-16T06:07:09.067Z,15.50
2022-08-16T06:09:57.772Z,15.50
2022-08-16T06:12:28.810Z,15.50
2022-08-16T06:15:10.087Z,15.50
2022-08-16T06:17:41.482Z,15.50
2022-08-16T06:20:24.007Z,15.50
2022-08-16T06:22:57.630Z,15.60
2022-08-16T06:25:36.124Z,15.60
2022-08-16T06:28:16.906Z,15.70
2022-08-16T06:30:50.781Z,15.70
2022-08-16T06:33:22.280Z,15.70
2022-08-16T06:35:59.967Z,15.80
2022-08-16T06:38:33.790Z,15.80
2022-08-16T06:41:13.821Z,15.90
2022-08-16T06:43:41.628Z,15.90
2022-08-16T06:46:31.620Z,15.90
2022-08-16T06:49:05.792Z,16.00
2022-08-16T06:51:46.055Z,16.10
2022-08-16T06:54:21.804Z,16.20
2022-08-16T06:56:55.198Z,16.20
2022-08-16T06:59:26.012Z,16.30
2022-08-16T07:01:59.858Z,16.40
2022-08-16T07:04:33.199Z,16.50
2022-08-16T07:07:14.405Z,16.60
2022-08-16T07:09:47.806Z,16.70
2022-08-16T07:12:46.904Z,16.80
2022-08-16T07:15:19.001Z,16.80
2022-08-16T07:17:52.786Z,16.90
2022-08-16T07:20:35.011Z,17.00
2022-08-16T07:23:13.335Z,17.20
2022-08-16T07:25:47.747Z,17.30
2022-08-16T07:28:24.257Z,17.40
2022-08-16T07:30:51.517Z,17.50
2022-08-16T07:33:52.378Z,17.60
2022-08-16T07:36:21.980Z,17.80
2022-08-16T07:38:56.806Z,18.10
2022-08-16T07:41:36.830Z,18.20
2022-08-16T07:44:16.215Z,18.40
2022-08-16T07:46:56.293Z,18.50
2022-08-16T07:49:23.869Z,18.60
2022-08-16T07:51:57.839Z,18.80
2022-08-16T07:54:38.024Z,19.00
2022-08-16T07:57:18.967Z,19.20
2022-08-16T07:59:52.008Z,19.40
2022-08-16T08:02:27.447Z,19.60
2022-08-16T08:05:03.528Z,19.80
2022-08-16T08:07:32.607Z,20.00
2022-08-16T08:09:59.659Z,20.10
2022-08-16T08:12:40.861Z,20.30
2022-08-16T08:15:25.621Z,20.40
2022-08-16T08:18:29.351Z,20.60
2022-08-16T08:20:58.925Z,20.80
2022-08-16T08:23:33.831Z,21.10
2022-08-16T08:26:09.887Z,21.20
2022-08-16T08:28:44.230Z,21.40
2022-08-16T08:31:17.841Z,21.50
2022-08-16T08:33:47.305Z,21.70
2022-08-16T08:36:34.246Z,21.90
2022-08-16T08:39:13.199Z,22.10
2022-08-16T08:41:49.618Z,22.20
2022-08-16T08:44:28.866Z,22.40
2022-08-16T08:47:12.265Z,22.50
2022-08-16T08:49:50.616Z,22.60
2022-08-16T08:52:34.335Z,22.80
2022-08-16T08:55:12.954Z,22.90
2022-08-16T08:57:45.300Z,23.10
2022-08-16T09:00:21.469Z,23.20
2022-08-16T09:02:59.881Z,23.40
2022-08-16T09:05:36.042Z,23.50
2022-08-16T09:08:10.873Z,23.70
2022-08-16T09:10:45.853Z,23.90
2022-08-16T09:13:19.050Z,24.10
2022-08-16T09:15:56.857Z,24.30
2022-08-16T09:18:26.901Z,24.40
2022-08-16T09:21:09.582Z,24.60
2022-08-16T09:23:38.265Z,24.80
2022-08-16T09:26:45.414Z,24.90
2022-08-16T09:29:23.778Z,25.10
2022-08-16T09:32:07.632Z,25.20
2022-08-16T09:34:34.730Z,25.40
2022-08-16T09:37:17.985Z,25.60
2022-08-16T09:39:50.102Z,25.80
2022-08-16T09:42:23.879Z,25.90
2022-08-16T09:45:12.990Z,26.00
2022-08-16T09:47:56.283Z,26.20
2022-08-16T09:50:39.845Z,26.40
2022-08-16T09:53:26.902Z,26.60
2022-08-16T09:56:03.841Z,26.80
2022-08-16T09:59:05.637Z,27.10
2022-08-16T10:01:32.045Z,27.30
2022-08-16T10:04:31.731Z,27.40
2022-08-16T10:09:45.250Z,27.60
2022-08-16T10:12:46.894Z,27.60
2022-08-16T10:15:30.183Z,27.60
2022-08-16T10:18:01.262Z,27.60
2022-08-16T10:20:38.935Z,27.60
2022-08-16T10:23:17.273Z,27.70
2022-08-16T10:27:17.745Z,27.90
2022-08-16T10:28:42.992Z,28.00
2022-08-16T10:31:45.991Z,28.30
2022-08-16T10:34:04.654Z,28.50
2022-08-16T10:36:57.940Z,28.80
2022-08-16T10:39:24.836Z,29.10
2022-08-16T10:41:57.914Z,29.20
2022-08-16T10:44:25.791Z,29.40
2022-08-16T10:46:52.840Z,29.60
2022-08-16T10:49:28.982Z,29.80
2022-08-16T10:52:19.058Z,30.00
2022-08-16T10:57:48.142Z,30.40
2022-08-16T11:00:21.525Z,30.70
2022-08-16T11:02:58.929Z,30.90
2022-08-16T11:08:35.212Z,31.30
2022-08-16T11:11:11.496Z,31.40
2022-08-16T11:14:11.428Z,31.40
2022-08-16T11:19:31.946Z,31.30
2022-08-16T11:22:38.705Z,31.20
2022-08-16T11:25:16.184Z,31.20
2022-08-16T11:28:01.544Z,31.20
2022-08-16T11:30:39.180Z,31.20
2022-08-16T11:33:10.767Z,31.10
2022-08-16T11:36:22.347Z,30.90
2022-08-16T11:38:51.311Z,31.10
2022-08-16T11:41:32.448Z,31.20
2022-08-16T11:44:01.017Z,31.10
2022-08-16T11:46:45.012Z,31.10
2022-08-16T11:49:14.108Z,31.20
2022-08-16T11:51:49.974Z,31.20
2022-08-16T11:54:20.373Z,31.10
2022-08-16T11:56:52.860Z,31.10
2022-08-16T11:59:32.861Z,31.00
2022-08-16T12:02:32.480Z,30.90
2022-08-16T12:04:53.403Z,30.80
2022-08-16T12:07:28.229Z,30.80
2022-08-16T12:09:55.667Z,30.80
2022-08-16T12:12:30.011Z,30.70
2022-08-16T12:14:59.973Z,30.70
2022-08-16T12:17:35.978Z,30.70
2022-08-16T12:20:16.132Z,30.50
2022-08-16T12:22:47.233Z,30.40
2022-08-16T12:25:23.969Z,30.40
2022-08-16T12:27:51.966Z,30.30
2022-08-16T12:30:37.789Z,30.30
2022-08-16T12:33:13.992Z,30.20
2022-08-16T12:35:41.319Z,30.20
2022-08-16T12:38:41.130Z,30.10
2022-08-16T12:41:04.632Z,30.00
2022-08-16T12:43:45.139Z,30.10
2022-08-16T12:46:15.229Z,30.00
2022-08-16T12:49:04.995Z,29.90
2022-08-16T12:51:58.822Z,29.90
2022-08-16T12:54:32.008Z,29.80
2022-08-16T12:57:07.973Z,29.70
2022-08-16T12:59:41.981Z,29.80
2022-08-16T13:02:33.326Z,30.00
2022-08-16T13:05:01.737Z,30.30
2022-08-16T13:07:42.511Z,30.60
2022-08-16T13:10:21.414Z,30.90
2022-08-16T13:13:12.013Z,31.20
2022-08-16T13:15:51.730Z,31.40
2022-08-16T13:18:27.262Z,31.70
2022-08-16T13:21:06.987Z,32.00
2022-08-16T13:23:35.803Z,32.20
2022-08-16T13:26:10.015Z,32.40
2022-08-16T13:28:47.662Z,32.50
2022-08-16T13:31:28.009Z,32.60
2022-08-16T13:34:01.599Z,32.60
2022-08-16T13:36:49.585Z,32.60
2022-08-16T13:39:24.408Z,32.50
2022-08-16T13:41:58.005Z,32.40
2022-08-16T13:44:33.081Z,32.30
2022-08-16T13:47:18.011Z,32.20
2022-08-16T13:49:46.400Z,32.20
2022-08-16T13:52:20.069Z,32.10
2022-08-16T13:54:46.757Z,32.00
2022-08-16T13:57:20.042Z,31.90
2022-08-16T13:59:50.051Z,31.80
2022-08-16T14:02:30.209Z,31.70
2022-08-16T14:05:03.012Z,31.50
2022-08-16T14:07:40.664Z,31.40
2022-08-16T14:10:17.013Z,31.40
2022-08-16T14:12:50.032Z,31.40
2022-08-16T14:15:32.056Z,31.40
2022-08-16T14:18:15.783Z,31.40
2022-08-16T14:20:51.229Z,31.50
2022-08-16T14:23:25.137Z,31.60
2022-08-16T14:25:59.052Z,31.80
2022-08-16T14:28:32.024Z,32.00
2022-08-16T14:31:07.030Z,32.20
2022-08-16T14:33:41.049Z,32.40
2022-08-16T14:36:08.088Z,32.50
2022-08-16T14:38:37.413Z,32.60
2022-08-16T14:41:13.039Z,32.60
2022-08-16T14:43:46.049Z,32.60
2022-08-16T14:46:12.710Z,32.70
2022-08-16T14:48:42.293Z,32.80
2022-08-16T14:51:15.075Z,32.80
2022-08-16T14:53:45.519Z,32.90
2022-08-16T14:56:38.962Z,33.10
2022-08-16T14:59:13.044Z,33.20
2022-08-16T15:01:59.747Z,33.20
2022-08-16T15:04:40.538Z,33.20
2022-08-16T15:07:17.129Z,33.20
2022-08-16T15:10:01.677Z,33.10
2022-08-16T15:12:34.102Z,33.10
2022-08-16T15:15:16.386Z,33.10
2022-08-16T15:17:55.955Z,33.10
2022-08-16T15:20:33.047Z,33.10
2022-08-16T15:23:14.069Z,33.10
2022-08-16T15:25:44.809Z,33.20
2022-08-16T15:28:31.086Z,33.20
2022-08-16T15:31:06.458Z,33.40
2022-08-16T15:33:35.573Z,33.50
2022-08-16T15:36:16.086Z,33.50
2022-08-16T15:38:57.222Z,33.50
2022-08-16T15:42:04.102Z,33.50
2022-08-16T15:44:51.914Z,33.50
2022-08-16T15:47:22.072Z,33.40
2022-08-16T15:50:00.091Z,33.20
2022-08-16T15:52:41.081Z,33.10
2022-08-16T15:55:32.738Z,33.10
2022-08-16T15:58:01.827Z,33.10
2022-08-16T16:00:55.132Z,33.10
2022-08-16T16:03:34.591Z,33.10
2022-08-16T16:06:02.641Z,33.00
2022-08-16T16:08:38.988Z,33.00
2022-08-16T16:11:15.102Z,32.90
2022-08-16T16:13:42.633Z,32.80
2022-08-16T16:16:13.304Z,32.80
2022-08-16T16:18:53.093Z,32.70
2022-08-16T16:21:20.336Z,32.70
2022-08-16T16:23:55.102Z,32.70
2022-08-16T16:26:32.098Z,32.80
2022-08-16T16:29:08.550Z,32.60
2022-08-16T16:31:59.498Z,32.60
2022-08-16T16:34:35.485Z,32.40
2022-08-16T16:37:02.599Z,32.30
2022-08-16T16:39:36.109Z,32.30
2022-08-16T16:42:04.739Z,32.30
2022-08-16T16:44:38.102Z,32.30
2022-08-16T16:47:17.794Z,32.40
2022-08-16T16:49:53.177Z,32.40
2022-08-16T16:52:44.243Z,32.50
2022-08-16T16:55:16.104Z,32.50
2022-08-16T16:58:03.351Z,32.60
2022-08-16T17:00:38.949Z,32.60
2022-08-16T17:03:17.654Z,32.60
2022-08-16T17:06:00.156Z,32.60
2022-08-16T17:08:37.303Z,32.60
2022-08-16T17:11:08.376Z,32.60
2022-08-16T17:13:43.127Z,32.70
2022-08-16T17:16:19.065Z,32.70
2022-08-16T17:19:16.195Z,32.60
2022-08-16T17:21:42.042Z,32.70
2022-08-16T17:24:18.034Z,32.60
2022-08-16T17:26:48.809Z,32.60
2022-08-16T17:29:22.150Z,32.60
2022-08-16T17:32:33.201Z,32.50
2022-08-16T17:34:53.143Z,32.50
2022-08-16T17:37:34.193Z,32.40
2022-08-16T17:40:40.517Z,32.30
2022-08-16T17:43:08.090Z,32.20
2022-08-16T17:45:41.164Z,32.10
2022-08-16T17:48:08.443Z,32.00
2022-08-16T17:50:35.937Z,31.90
2022-08-16T17:53:11.152Z,31.90
2022-08-16T17:55:40.699Z,31.80
2022-08-16T17:58:22.477Z,31.70
2022-08-16T18:01:04.162Z,31.60
2022-08-16T18:04:07.374Z,31.50
2022-08-16T18:06:37.156Z,31.50
2022-08-16T18:09:04.210Z,31.40
2022-08-16T18:11:41.180Z,31.30
2022-08-16T18:14:08.834Z,31.20
2022-08-16T18:16:42.161Z,31.20
2022-08-16T18:19:10.085Z,31.10
2022-08-16T18:22:02.912Z,31.00
2022-08-16T18:24:29.812Z,30.90
2022-08-16T18:27:26.607Z,30.80
2022-08-16T18:29:58.146Z,30.70
2022-08-16T18:32:25.343Z,30.50
2022-08-16T18:35:00.162Z,30.40
2022-08-16T18:37:26.823Z,30.30
2022-08-16T18:40:00.334Z,30.10
2022-08-16T18:42:27.282Z,29.90
2022-08-16T18:44:53.978Z,29.80
2022-08-16T18:47:27.188Z,29.70
2022-08-16T18:49:53.841Z,29.60
2022-08-16T18:52:27.194Z,29.60
2022-08-16T18:55:02.294Z,29.50
2022-08-16T18:57:36.214Z,29.40
2022-08-16T19:00:12.200Z,29.30
2022-08-16T19:02:57.354Z,29.20
2022-08-16T19:05:35.201Z,29.10
2022-08-16T19:08:10.261Z,28.90
2022-08-16T19:10:38.407Z,28.80
2022-08-16T19:13:08.098Z,28.80
2022-08-16T19:15:42.206Z,28.70
2022-08-16T19:18:16.226Z,28.60
2022-08-16T19:20:51.214Z,28.50
2022-08-16T19:23:27.361Z,28.40
2022-08-16T19:26:00.780Z,28.20
2022-08-16T19:28:51.535Z,28.00
2022-08-16T19:31:40.205Z,27.90
2022-08-16T19:34:08.145Z,27.80
2022-08-16T19:36:44.410Z,27.60
2022-08-16T19:39:14.515Z,27.50
2022-08-16T19:41:54.027Z,27.50
2022-08-16T19:44:29.239Z,27.40
2022-08-16T19:47:10.273Z,27.20
2022-08-16T19:49:37.705Z,27.10
2022-08-16T19:52:13.259Z,27.00
2022-08-16T19:54:46.219Z,26.90
2022-08-16T19:57:13.730Z,26.80
2022-08-16T19:59:48.239Z,26.70
2022-08-16T20:02:35.670Z,26.70
2022-08-16T20:05:12.220Z,26.60
2022-08-16T20:07:45.308Z,26.40
2022-08-16T20:10:20.272Z,26.30
2022-08-16T20:13:01.772Z,26.20
2022-08-16T20:15:49.231Z,26.10
2022-08-16T20:18:24.842Z,26.00
2022-08-16T20:20:59.221Z,25.90
2022-08-16T20:23:32.260Z,25.80
2022-08-16T20:26:05.240Z,25.70
2022-08-16T20:28:52.990Z,25.60
2022-08-16T20:31:21.915Z,25.50
2022-08-16T20:33:55.215Z,25.40
2022-08-16T20:36:28.240Z,25.30
2022-08-16T20:39:04.231Z,25.20
2022-08-16T20:41:31.687Z,25.10
2022-08-16T20:44:05.284Z,25.00
2022-08-16T20:46:44.272Z,25.00
2022-08-16T20:49:10.952Z,24.90
2022-08-16T20:51:49.676Z,24.80
2022-08-16T20:54:19.335Z,24.80
2022-08-16T20:56:53.259Z,24.60
2022-08-16T20:59:26.253Z,24.60
2022-08-16T21:01:53.173Z,24.50
2022-08-16T21:04:30.325Z,24.40
2022-08-16T21:06:59.219Z,24.40
2022-08-16T21:09:35.276Z,24.20
2022-08-16T21:12:05.246Z,24.20
2022-08-16T21:14:33.803Z,24.10
2022-08-16T21:17:12.262Z,24.00
2022-08-16T21:19:46.254Z,23.90
2022-08-16T21:22:17.205Z,23.80
2022-08-16T21:24:54.121Z,23.80
2022-08-16T21:27:27.282Z,23.70
2022-08-16T21:30:03.794Z,23.60
2022-08-16T21:32:41.288Z,23.50
2022-08-16T21:35:11.261Z,23.50
2022-08-16T21:37:38.457Z,23.40
2022-08-16T21:40:14.353Z,23.30
2022-08-16T21:42:42.291Z,23.30
2022-08-16T21:45:19.272Z,23.20
2022-08-16T21:47:45.960Z,23.10
2022-08-16T21:50:20.283Z,23.10
2022-08-16T21:52:53.288Z,23.00
2022-08-16T21:55:26.301Z,22.90
2022-08-16T21:57:52.985Z,22.90
2022-08-16T22:00:26.316Z,22.80
2022-08-16T22:02:55.866Z,22.70
2022-08-16T22:05:23.513Z,22.70
2022-08-16T22:08:01.330Z,22.60
2022-08-16T22:11:04.872Z,22.50
2022-08-16T22:13:28.313Z,22.50
2022-08-16T22:15:55.389Z,22.40
2022-08-16T22:18:29.278Z,22.30
2022-08-16T22:20:56.293Z,22.30
2022-08-16T22:23:32.298Z,22.20
2022-08-16T22:26:05.326Z,22.10
2022-08-16T22:28:32.168Z,22.10
2022-08-16T22:30:59.896Z,22.00
2022-08-16T22:33:34.311Z,22.00
2022-08-16T22:36:02.628Z,21.90
2022-08-16T22:38:53.804Z,21.80
2022-08-16T22:41:22.953Z,21.80
2022-08-16T22:43:56.324Z,21.70
2022-08-16T22:46:23.114Z,21.60
2022-08-16T22:48:57.305Z,21.60
2022-08-16T22:51:26.020Z,21.50
2022-08-16T22:53:59.324Z,21.50
2022-08-16T22:56:32.337Z,21.40
2022-08-16T22:58:59.477Z,21.40
2022-08-16T23:01:26.452Z,21.40
2022-08-16T23:04:03.313Z,21.30
2022-08-16T23:06:30.835Z,21.20
2022-08-16T23:09:04.333Z,21.20
2022-08-16T23:11:31.037Z,21.10
2022-08-16T23:14:04.647Z,21.00
2022-08-16T23:16:39.321Z,21.00
2022-08-16T23:19:08.693Z,21.00
2022-08-16T23:21:43.344Z,21.00
2022-08-16T23:24:18.343Z,20.90
2022-08-16T23:26:48.789Z,20.80
2022-08-16T23:29:26.662Z,20.80
2022-08-16T23:31:59.259Z,20.70
2022-08-16T23:34:36.348Z,20.70
2022-08-16T23:37:03.087Z,20.60
2022-08-16T23:39:36.413Z,20.50
2022-08-16T23:42:13.375Z,20.50
2022-08-16T23:44:58.329Z,20.50
2022-08-16T23:47:32.339Z,20.50
2022-08-16T23:50:05.888Z,20.40
2022-08-16T23:52:55.357Z,20.30
2022-08-16T23:55:22.983Z,20.30
2022-08-16T23:57:56.368Z,20.20
